Startpagina
METAR-TAF:

METAR-TAF

Vliegvelden :

Productieplatform

P11-b, Nederland

breedte: 52-21-36N, lengte: 3-20-30E, hoogte: 24 m

Actueel weer

Dit bericht is 21 minuten geleden gemaakt, om 20:55 UTC
Wind 26 kt uit het westnoordwesten, variërend tussen het zuiden en het noordnoordwesten
Temperatuur 8°C
Vochtigheid 57%
Druk 1020 hPa
Zicht 10 km of meer

METAR: EHPG 232055Z AUTO 29026KT 190V340 9999 NSC 08/00 Q1020

Tijdstip: 22:16 (21:16 UTC)


TAF: ontbreekt

Waarnemingen en weersverwachtingen van meer dan 4000 vliegvelden (METAR en TAF).

De beschikbare stations zijn de gele en rode punten op de kaart.

Ga met uw muis naar het station om de naam te zien.

Klik dan om waarnemingen en weersverwachtingen te zien.

kaart wijzigen: klik op de groene knoppen met een zwart kruis om in te zoomen, op de groene knop met een streepje om uit te zoomen of op de groene pijlen voor aangrenzende kaarten.


METAR-TAF: